Aktuální počasí v Česku a ve světě - METAR

Seznam meteostanic umístěných nejčasteji na letišti v ČR a ve světě

Vyhledat místa podle abecedy:
A B C D E F G H I J K L M N O P Q R S T U V W X Y Z

Filtrovat:

ID stanice:
a/nebo
Název místa (fulltext):
 
Místo (ID)Naposledy načteno 
Edinburgh (EGPH) 05.03.2021 09:50 UTC Zobrazit METAR
EGPH 050950Z VRB03KT 9999 OVC032 03/M03 Q1035
Eindhoven (EHEH) 05.03.2021 03:45 UTC Zobrazit METAR
EHEH 050345Z AUTO 01007KT 9999 FEW012 SCT016 01/M00 Q1025 WHT
Entebbe (HUEN) 04.03.2021 08:00 UTC Zobrazit METAR
HUEN 040800Z 17014KT 9999 FEW023 27/18 Q1017
Esbjerg (EKEB) 04.03.2021 15:50 UTC Zobrazit METAR
EKEB 041550Z AUTO 01011KT 9999 FEW048/// 05/M05 Q1021
Reklama

Reklama


Počasí na Váš email

Emaily jsou bez reklamy a bez spamu



Odhlásit newsletter



Další české internetové stránky (nejen) o počasí najdete v katalogu TOPlist - weby o počasí nebo vyhledejte na internetu, co jste tu na 🌞 Slunečnu ⛅ zatím nenašli:
⭐ Přidat Slunečno.cz do oblíbených | 🏠 Nastavit Slunečno.cz jako HOMEPAGE

⬆️ Posunout stránku nahoru ⬆️
Reklama